sensor_id;sensor_type;location;lat;lon;timestamp;P1;durP1;ratioP1;P2;durP2;ratioP2
41883;SDS011;27566;50.930;5.328;2023-06-22T00:00:51;16.23;;;5.47;;
41883;SDS011;27566;50.930;5.328;2023-06-22T00:03:18;11.98;;;5.65;;
41883;SDS011;27566;50.930;5.328;2023-06-22T00:05:45;13.52;;;5.47;;
41883;SDS011;27566;50.930;5.328;2023-06-22T00:08:12;12.55;;;5.63;;
41883;SDS011;27566;50.930;5.328;2023-06-22T00:10:38;15.18;;;6.32;;
41883;SDS011;27566;50.930;5.328;2023-06-22T00:13:05;14.40;;;5.75;;
41883;SDS011;27566;50.930;5.328;2023-06-22T00:15:32;15.73;;;6.45;;
41883;SDS011;27566;50.930;5.328;2023-06-22T00:17:58;16.75;;;6.15;;
41883;SDS011;27566;50.930;5.328;2023-06-22T00:20:24;16.95;;;5.32;;
41883;SDS011;27566;50.930;5.328;2023-06-22T00:22:57;16.95;;;5.63;;
41883;SDS011;27566;50.930;5.328;2023-06-22T00:25:23;20.35;;;7.45;;
41883;SDS011;27566;50.930;5.328;2023-06-22T00:27:49;26.80;;;7.95;;
41883;SDS011;27566;50.930;5.328;2023-06-22T00:30:16;25.45;;;8.48;;
41883;SDS011;27566;50.930;5.328;2023-06-22T00:32:43;18.58;;;7.45;;
41883;SDS011;27566;50.930;5.328;2023-06-22T00:35:09;46.05;;;15.27;;
41883;SDS011;27566;50.930;5.328;2023-06-22T00:37:37;60.28;;;22.30;;
41883;SDS011;27566;50.930;5.328;2023-06-22T00:40:07;55.58;;;17.88;;
41883;SDS011;27566;50.930;5.328;2023-06-22T00:42:37;57.22;;;18.63;;
41883;SDS011;27566;50.930;5.328;2023-06-22T00:45:04;61.15;;;21.25;;
41883;SDS011;27566;50.930;5.328;2023-06-22T00:47:31;74.20;;;23.40;;
41883;SDS011;27566;50.930;5.328;2023-06-22T00:49:58;75.53;;;23.63;;
41883;SDS011;27566;50.930;5.328;2023-06-22T00:52:25;75.07;;;22.55;;
41883;SDS011;27566;50.930;5.328;2023-06-22T00:54:55;64.60;;;21.58;;
41883;SDS011;27566;50.930;5.328;2023-06-22T00:57:23;58.30;;;18.75;;
41883;SDS011;27566;50.930;5.328;2023-06-22T00:59:53;66.60;;;19.88;;
41883;SDS011;27566;50.930;5.328;2023-06-22T01:02:19;52.55;;;18.60;;
41883;SDS011;27566;50.930;5.328;2023-06-22T01:04:45;49.08;;;16.88;;
41883;SDS011;27566;50.930;5.328;2023-06-22T01:10:16;56.15;;;20.70;;
41883;SDS011;27566;50.930;5.328;2023-06-22T01:12:51;61.50;;;19.08;;
41883;SDS011;27566;50.930;5.328;2023-06-22T01:15:25;50.08;;;16.83;;
41883;SDS011;27566;50.930;5.328;2023-06-22T01:17:56;53.85;;;17.55;;
41883;SDS011;27566;50.930;5.328;2023-06-22T01:20:24;59.97;;;20.38;;
41883;SDS011;27566;50.930;5.328;2023-06-22T01:22:57;51.97;;;16.42;;
41883;SDS011;27566;50.930;5.328;2023-06-22T01:25:48;46.15;;;18.58;;
41883;SDS011;27566;50.930;5.328;2023-06-22T01:28:45;57.50;;;18.67;;
41883;SDS011;27566;50.930;5.328;2023-06-22T01:31:13;50.30;;;17.05;;
41883;SDS011;27566;50.930;5.328;2023-06-22T01:33:44;49.28;;;18.48;;
41883;SDS011;27566;50.930;5.328;2023-06-22T01:36:11;51.17;;;16.75;;
41883;SDS011;27566;50.930;5.328;2023-06-22T01:38:38;51.58;;;14.88;;
41883;SDS011;27566;50.930;5.328;2023-06-22T01:41:04;39.47;;;15.52;;
41883;SDS011;27566;50.930;5.328;2023-06-22T01:43:31;47.40;;;15.70;;
41883;SDS011;27566;50.930;5.328;2023-06-22T01:46:01;40.60;;;14.32;;
41883;SDS011;27566;50.930;5.328;2023-06-22T01:48:28;40.92;;;13.93;;
41883;SDS011;27566;50.930;5.328;2023-06-22T01:50:55;42.58;;;13.75;;
41883;SDS011;27566;50.930;5.328;2023-06-22T01:53:21;39.78;;;12.93;;
41883;SDS011;27566;50.930;5.328;2023-06-22T01:55:47;32.05;;;13.20;;
41883;SDS011;27566;50.930;5.328;2023-06-22T01:58:14;32.97;;;13.07;;
41883;SDS011;27566;50.930;5.328;2023-06-22T02:00:40;39.10;;;12.70;;
41883;SDS011;27566;50.930;5.328;2023-06-22T02:03:23;36.47;;;12.73;;
41883;SDS011;27566;50.930;5.328;2023-06-22T02:05:55;34.95;;;11.32;;
41883;SDS011;27566;50.930;5.328;2023-06-22T02:08:28;33.53;;;11.90;;
41883;SDS011;27566;50.930;5.328;2023-06-22T02:11:03;25.58;;;9.60;;
41883;SDS011;27566;50.930;5.328;2023-06-22T02:13:30;21.70;;;9.70;;
41883;SDS011;27566;50.930;5.328;2023-06-22T02:15:57;22.73;;;9.10;;
41883;SDS011;27566;50.930;5.328;2023-06-22T02:18:23;19.88;;;8.73;;
41883;SDS011;27566;50.930;5.328;2023-06-22T02:20:50;17.17;;;8.65;;
41883;SDS011;27566;50.930;5.328;2023-06-22T02:23:16;23.90;;;11.07;;
41883;SDS011;27566;50.930;5.328;2023-06-22T02:25:42;21.10;;;8.52;;
41883;SDS011;27566;50.930;5.328;2023-06-22T02:28:09;18.02;;;9.82;;
41883;SDS011;27566;50.930;5.328;2023-06-22T02:30:35;19.05;;;9.30;;
41883;SDS011;27566;50.930;5.328;2023-06-22T02:33:01;16.80;;;11.07;;
41883;SDS011;27566;50.930;5.328;2023-06-22T02:35:27;14.02;;;9.05;;
41883;SDS011;27566;50.930;5.328;2023-06-22T02:37:58;17.13;;;10.38;;
41883;SDS011;27566;50.930;5.328;2023-06-22T02:40:25;19.38;;;11.13;;
41883;SDS011;27566;50.930;5.328;2023-06-22T02:42:52;17.52;;;11.07;;
41883;SDS011;27566;50.930;5.328;2023-06-22T02:45:18;17.42;;;10.02;;
41883;SDS011;27566;50.930;5.328;2023-06-22T02:47:44;19.70;;;12.07;;
41883;SDS011;27566;50.930;5.328;2023-06-22T02:50:10;17.75;;;10.75;;
41883;SDS011;27566;50.930;5.328;2023-06-22T02:52:36;19.95;;;12.30;;
41883;SDS011;27566;50.930;5.328;2023-06-22T02:55:04;17.63;;;10.88;;
41883;SDS011;27566;50.930;5.328;2023-06-22T02:57:32;27.83;;;12.15;;
41883;SDS011;27566;50.930;5.328;2023-06-22T02:59:58;17.67;;;13.57;;
41883;SDS011;27566;50.930;5.328;2023-06-22T03:02:24;18.90;;;13.40;;
41883;SDS011;27566;50.930;5.328;2023-06-22T03:04:51;25.33;;;14.98;;
41883;SDS011;27566;50.930;5.328;2023-06-22T03:07:18;18.50;;;13.35;;
41883;SDS011;27566;50.930;5.328;2023-06-22T03:09:45;20.52;;;13.63;;
41883;SDS011;27566;50.930;5.328;2023-06-22T03:12:11;18.80;;;14.05;;
41883;SDS011;27566;50.930;5.328;2023-06-22T03:14:37;23.70;;;13.88;;
41883;SDS011;27566;50.930;5.328;2023-06-22T03:17:04;18.25;;;13.90;;
41883;SDS011;27566;50.930;5.328;2023-06-22T03:19:31;21.27;;;13.52;;
41883;SDS011;27566;50.930;5.328;2023-06-22T03:21:57;19.90;;;13.60;;
41883;SDS011;27566;50.930;5.328;2023-06-22T03:24:24;19.33;;;14.18;;
41883;SDS011;27566;50.930;5.328;2023-06-22T03:26:50;20.08;;;14.20;;
41883;SDS011;27566;50.930;5.328;2023-06-22T03:29:16;22.70;;;14.10;;
41883;SDS011;27566;50.930;5.328;2023-06-22T03:31:42;19.25;;;14.07;;
41883;SDS011;27566;50.930;5.328;2023-06-22T03:34:08;17.58;;;13.48;;
41883;SDS011;27566;50.930;5.328;2023-06-22T03:36:34;20.23;;;15.30;;
41883;SDS011;27566;50.930;5.328;2023-06-22T03:39:00;19.27;;;14.50;;
41883;SDS011;27566;50.930;5.328;2023-06-22T03:41:26;19.27;;;14.40;;
41883;SDS011;27566;50.930;5.328;2023-06-22T03:43:52;23.00;;;16.10;;
41883;SDS011;27566;50.930;5.328;2023-06-22T03:46:18;21.92;;;16.33;;
41883;SDS011;27566;50.930;5.328;2023-06-22T03:48:45;21.10;;;14.30;;
41883;SDS011;27566;50.930;5.328;2023-06-22T03:51:11;21.27;;;14.98;;
41883;SDS011;27566;50.930;5.328;2023-06-22T03:53:37;17.65;;;15.50;;
41883;SDS011;27566;50.930;5.328;2023-06-22T03:56:03;21.25;;;15.75;;
41883;SDS011;27566;50.930;5.328;2023-06-22T03:58:29;20.70;;;16.17;;
41883;SDS011;27566;50.930;5.328;2023-06-22T04:00:57;21.10;;;16.40;;
41883;SDS011;27566;50.930;5.328;2023-06-22T04:03:25;18.73;;;14.88;;
41883;SDS011;27566;50.930;5.328;2023-06-22T04:05:51;20.98;;;14.70;;
41883;SDS011;27566;50.930;5.328;2023-06-22T04:08:17;18.85;;;14.23;;
41883;SDS011;27566;50.930;5.328;2023-06-22T04:10:43;18.20;;;13.57;;
41883;SDS011;27566;50.930;5.328;2023-06-22T04:13:10;17.20;;;12.77;;
41883;SDS011;27566;50.930;5.328;2023-06-22T04:15:35;16.73;;;11.18;;
41883;SDS011;27566;50.930;5.328;2023-06-22T04:18:01;19.20;;;14.20;;
41883;SDS011;27566;50.930;5.328;2023-06-22T04:20:27;17.15;;;12.10;;
41883;SDS011;27566;50.930;5.328;2023-06-22T04:22:53;16.38;;;12.80;;
41883;SDS011;27566;50.930;5.328;2023-06-22T04:25:19;16.48;;;11.07;;
41883;SDS011;27566;50.930;5.328;2023-06-22T04:27:46;16.85;;;12.23;;
41883;SDS011;27566;50.930;5.328;2023-06-22T04:30:12;17.52;;;12.30;;
41883;SDS011;27566;50.930;5.328;2023-06-22T04:32:40;19.13;;;11.88;;
41883;SDS011;27566;50.930;5.328;2023-06-22T04:35:06;20.33;;;13.18;;
41883;SDS011;27566;50.930;5.328;2023-06-22T04:37:32;23.60;;;13.73;;
41883;SDS011;27566;50.930;5.328;2023-06-22T04:39:58;18.77;;;14.18;;
41883;SDS011;27566;50.930;5.328;2023-06-22T04:42:27;24.88;;;19.77;;
41883;SDS011;27566;50.930;5.328;2023-06-22T04:44:53;20.08;;;15.00;;
41883;SDS011;27566;50.930;5.328;2023-06-22T04:47:19;23.58;;;17.02;;
41883;SDS011;27566;50.930;5.328;2023-06-22T04:49:45;25.23;;;19.73;;
41883;SDS011;27566;50.930;5.328;2023-06-22T04:52:12;26.48;;;18.90;;
41883;SDS011;27566;50.930;5.328;2023-06-22T04:54:45;23.58;;;19.35;;
41883;SDS011;27566;50.930;5.328;2023-06-22T04:57:15;25.98;;;18.77;;
41883;SDS011;27566;50.930;5.328;2023-06-22T04:59:41;29.98;;;19.98;;
41883;SDS011;27566;50.930;5.328;2023-06-22T05:02:08;26.63;;;20.05;;
41883;SDS011;27566;50.930;5.328;2023-06-22T05:04:34;28.63;;;22.42;;
41883;SDS011;27566;50.930;5.328;2023-06-22T05:07:03;28.10;;;21.23;;
41883;SDS011;27566;50.930;5.328;2023-06-22T05:09:29;25.15;;;21.60;;
41883;SDS011;27566;50.930;5.328;2023-06-22T05:11:55;26.92;;;22.98;;
41883;SDS011;27566;50.930;5.328;2023-06-22T05:14:22;27.58;;;22.75;;
41883;SDS011;27566;50.930;5.328;2023-06-22T05:16:48;28.15;;;22.45;;
41883;SDS011;27566;50.930;5.328;2023-06-22T05:19:16;30.58;;;24.23;;
41883;SDS011;27566;50.930;5.328;2023-06-22T05:21:42;31.88;;;22.58;;
41883;SDS011;27566;50.930;5.328;2023-06-22T05:24:08;28.27;;;22.98;;
41883;SDS011;27566;50.930;5.328;2023-06-22T05:26:34;33.85;;;25.60;;
41883;SDS011;27566;50.930;5.328;2023-06-22T05:29:01;39.75;;;24.33;;
41883;SDS011;27566;50.930;5.328;2023-06-22T05:31:28;30.70;;;26.25;;
41883;SDS011;27566;50.930;5.328;2023-06-22T05:33:55;36.75;;;28.80;;
41883;SDS011;27566;50.930;5.328;2023-06-22T05:36:21;41.88;;;30.35;;
41883;SDS011;27566;50.930;5.328;2023-06-22T05:38:50;39.80;;;30.42;;
41883;SDS011;27566;50.930;5.328;2023-06-22T05:41:17;38.30;;;31.45;;
41883;SDS011;27566;50.930;5.328;2023-06-22T05:43:43;34.00;;;27.25;;
41883;SDS011;27566;50.930;5.328;2023-06-22T05:46:08;37.03;;;28.73;;
41883;SDS011;27566;50.930;5.328;2023-06-22T05:48:34;40.90;;;29.95;;
41883;SDS011;27566;50.930;5.328;2023-06-22T05:51:00;39.72;;;29.95;;
41883;SDS011;27566;50.930;5.328;2023-06-22T05:53:26;40.90;;;30.65;;
41883;SDS011;27566;50.930;5.328;2023-06-22T05:55:52;39.38;;;27.02;;
41883;SDS011;27566;50.930;5.328;2023-06-22T05:58:18;36.78;;;29.30;;
41883;SDS011;27566;50.930;5.328;2023-06-22T06:00:44;42.55;;;30.20;;
41883;SDS011;27566;50.930;5.328;2023-06-22T06:03:11;40.60;;;31.40;;
41883;SDS011;27566;50.930;5.328;2023-06-22T06:05:37;39.25;;;28.17;;
41883;SDS011;27566;50.930;5.328;2023-06-22T06:08:04;36.30;;;29.58;;
41883;SDS011;27566;50.930;5.328;2023-06-22T06:10:31;38.35;;;28.52;;
41883;SDS011;27566;50.930;5.328;2023-06-22T06:12:58;37.65;;;29.48;;
41883;SDS011;27566;50.930;5.328;2023-06-22T06:15:27;35.35;;;29.35;;
41883;SDS011;27566;50.930;5.328;2023-06-22T06:17:54;37.25;;;29.88;;
41883;SDS011;27566;50.930;5.328;2023-06-22T06:20:21;33.20;;;26.02;;
41883;SDS011;27566;50.930;5.328;2023-06-22T06:22:48;35.47;;;27.25;;
41883;SDS011;27566;50.930;5.328;2023-06-22T06:25:15;32.88;;;26.23;;
41883;SDS011;27566;50.930;5.328;2023-06-22T06:27:42;35.50;;;28.48;;
41883;SDS011;27566;50.930;5.328;2023-06-22T06:30:09;40.40;;;27.25;;
41883;SDS011;27566;50.930;5.328;2023-06-22T06:32:36;32.85;;;27.73;;
41883;SDS011;27566;50.930;5.328;2023-06-22T06:35:03;35.85;;;26.20;;
41883;SDS011;27566;50.930;5.328;2023-06-22T06:37:31;29.92;;;22.52;;
41883;SDS011;27566;50.930;5.328;2023-06-22T06:39:57;31.15;;;26.70;;
41883;SDS011;27566;50.930;5.328;2023-06-22T06:42:23;30.98;;;24.00;;
41883;SDS011;27566;50.930;5.328;2023-06-22T06:44:49;32.00;;;26.08;;
41883;SDS011;27566;50.930;5.328;2023-06-22T06:47:15;29.30;;;24.10;;
41883;SDS011;27566;50.930;5.328;2023-06-22T06:49:42;28.35;;;23.75;;
41883;SDS011;27566;50.930;5.328;2023-06-22T06:52:08;27.60;;;23.50;;
41883;SDS011;27566;50.930;5.328;2023-06-22T06:54:34;28.30;;;23.38;;
41883;SDS011;27566;50.930;5.328;2023-06-22T06:57:00;30.40;;;24.15;;
41883;SDS011;27566;50.930;5.328;2023-06-22T06:59:28;28.92;;;23.42;;
41883;SDS011;27566;50.930;5.328;2023-06-22T07:01:55;28.83;;;22.02;;
41883;SDS011;27566;50.930;5.328;2023-06-22T07:04:21;25.50;;;21.45;;
41883;SDS011;27566;50.930;5.328;2023-06-22T07:06:47;31.02;;;22.40;;
41883;SDS011;27566;50.930;5.328;2023-06-22T07:09:13;29.50;;;23.02;;
41883;SDS011;27566;50.930;5.328;2023-06-22T07:11:39;28.88;;;22.67;;
41883;SDS011;27566;50.930;5.328;2023-06-22T07:14:05;25.17;;;21.27;;
41883;SDS011;27566;50.930;5.328;2023-06-22T07:16:31;23.63;;;20.00;;
41883;SDS011;27566;50.930;5.328;2023-06-22T07:18:57;22.95;;;18.40;;
41883;SDS011;27566;50.930;5.328;2023-06-22T07:21:23;25.70;;;18.85;;
41883;SDS011;27566;50.930;5.328;2023-06-22T07:23:49;25.60;;;17.35;;
41883;SDS011;27566;50.930;5.328;2023-06-22T07:26:15;23.55;;;17.73;;
41883;SDS011;27566;50.930;5.328;2023-06-22T07:28:41;25.52;;;17.35;;
41883;SDS011;27566;50.930;5.328;2023-06-22T07:31:07;21.30;;;16.45;;
41883;SDS011;27566;50.930;5.328;2023-06-22T07:33:33;21.70;;;16.67;;
41883;SDS011;27566;50.930;5.328;2023-06-22T07:35:59;20.40;;;16.38;;
41883;SDS011;27566;50.930;5.328;2023-06-22T07:38:25;26.98;;;17.23;;
41883;SDS011;27566;50.930;5.328;2023-06-22T07:40:52;25.55;;;18.50;;
41883;SDS011;27566;50.930;5.328;2023-06-22T07:43:18;22.60;;;16.73;;
41883;SDS011;27566;50.930;5.328;2023-06-22T07:45:48;25.45;;;17.13;;
41883;SDS011;27566;50.930;5.328;2023-06-22T07:48:21;25.35;;;17.27;;
41883;SDS011;27566;50.930;5.328;2023-06-22T07:50:47;27.15;;;17.90;;
41883;SDS011;27566;50.930;5.328;2023-06-22T07:53:13;25.08;;;18.48;;
41883;SDS011;27566;50.930;5.328;2023-06-22T07:55:40;24.75;;;19.13;;
41883;SDS011;27566;50.930;5.328;2023-06-22T07:58:05;24.13;;;18.27;;
41883;SDS011;27566;50.930;5.328;2023-06-22T08:00:33;23.13;;;18.58;;
41883;SDS011;27566;50.930;5.328;2023-06-22T08:02:59;22.15;;;17.42;;
41883;SDS011;27566;50.930;5.328;2023-06-22T08:05:28;24.40;;;18.73;;
41883;SDS011;27566;50.930;5.328;2023-06-22T08:07:55;29.02;;;19.75;;
41883;SDS011;27566;50.930;5.328;2023-06-22T08:10:21;25.30;;;18.17;;
41883;SDS011;27566;50.930;5.328;2023-06-22T08:12:47;24.20;;;17.67;;
41883;SDS011;27566;50.930;5.328;2023-06-22T08:15:13;20.75;;;17.42;;
41883;SDS011;27566;50.930;5.328;2023-06-22T08:17:39;26.35;;;17.90;;
41883;SDS011;27566;50.930;5.328;2023-06-22T08:20:05;24.60;;;18.00;;
41883;SDS011;27566;50.930;5.328;2023-06-22T08:22:36;22.23;;;17.25;;
41883;SDS011;27566;50.930;5.328;2023-06-22T08:25:03;19.15;;;17.02;;
41883;SDS011;27566;50.930;5.328;2023-06-22T08:27:29;21.63;;;17.50;;
41883;SDS011;27566;50.930;5.328;2023-06-22T08:29:59;24.17;;;19.52;;
41883;SDS011;27566;50.930;5.328;2023-06-22T08:32:27;22.25;;;17.33;;
41883;SDS011;27566;50.930;5.328;2023-06-22T08:34:56;19.88;;;16.92;;
41883;SDS011;27566;50.930;5.328;2023-06-22T08:37:22;18.20;;;16.30;;
41883;SDS011;27566;50.930;5.328;2023-06-22T08:39:50;22.13;;;15.55;;
41883;SDS011;27566;50.930;5.328;2023-06-22T08:42:16;21.92;;;18.88;;
41883;SDS011;27566;50.930;5.328;2023-06-22T08:44:42;20.98;;;18.00;;
41883;SDS011;27566;50.930;5.328;2023-06-22T08:47:07;20.38;;;16.90;;
41883;SDS011;27566;50.930;5.328;2023-06-22T08:49:33;21.35;;;18.08;;
41883;SDS011;27566;50.930;5.328;2023-06-22T08:51:59;22.73;;;17.92;;
41883;SDS011;27566;50.930;5.328;2023-06-22T08:54:25;20.20;;;17.17;;
41883;SDS011;27566;50.930;5.328;2023-06-22T08:56:51;23.42;;;18.52;;
41883;SDS011;27566;50.930;5.328;2023-06-22T08:59:17;21.08;;;18.35;;
41883;SDS011;27566;50.930;5.328;2023-06-22T09:01:43;22.83;;;17.92;;
41883;SDS011;27566;50.930;5.328;2023-06-22T09:04:11;23.08;;;17.70;;
41883;SDS011;27566;50.930;5.328;2023-06-22T09:06:37;20.92;;;18.10;;
41883;SDS011;27566;50.930;5.328;2023-06-22T09:09:09;29.83;;;21.33;;
41883;SDS011;27566;50.930;5.328;2023-06-22T09:11:36;24.33;;;19.80;;
41883;SDS011;27566;50.930;5.328;2023-06-22T09:14:02;21.67;;;18.77;;
41883;SDS011;27566;50.930;5.328;2023-06-22T09:16:29;24.63;;;20.90;;
41883;SDS011;27566;50.930;5.328;2023-06-22T09:18:55;25.35;;;19.55;;
41883;SDS011;27566;50.930;5.328;2023-06-22T09:21:24;28.00;;;20.17;;
41883;SDS011;27566;50.930;5.328;2023-06-22T09:23:50;26.23;;;20.27;;
41883;SDS011;27566;50.930;5.328;2023-06-22T09:26:17;25.25;;;21.63;;
41883;SDS011;27566;50.930;5.328;2023-06-22T09:28:43;23.98;;;19.63;;
41883;SDS011;27566;50.930;5.328;2023-06-22T09:31:09;28.30;;;20.48;;
41883;SDS011;27566;50.930;5.328;2023-06-22T09:33:36;25.25;;;19.15;;
41883;SDS011;27566;50.930;5.328;2023-06-22T09:36:05;23.65;;;20.42;;
41883;SDS011;27566;50.930;5.328;2023-06-22T09:38:41;24.45;;;19.77;;
41883;SDS011;27566;50.930;5.328;2023-06-22T09:41:07;22.77;;;20.40;;
41883;SDS011;27566;50.930;5.328;2023-06-22T09:43:33;26.25;;;21.48;;
41883;SDS011;27566;50.930;5.328;2023-06-22T09:46:02;26.88;;;21.73;;
41883;SDS011;27566;50.930;5.328;2023-06-22T09:48:28;28.75;;;22.60;;
41883;SDS011;27566;50.930;5.328;2023-06-22T09:50:55;23.00;;;20.52;;
41883;SDS011;27566;50.930;5.328;2023-06-22T09:53:21;31.27;;;24.00;;
41883;SDS011;27566;50.930;5.328;2023-06-22T09:55:47;27.67;;;23.77;;
41883;SDS011;27566;50.930;5.328;2023-06-22T09:58:13;28.65;;;22.70;;
41883;SDS011;27566;50.930;5.328;2023-06-22T10:00:39;32.00;;;26.05;;
41883;SDS011;27566;50.930;5.328;2023-06-22T10:03:07;28.33;;;25.30;;
41883;SDS011;27566;50.930;5.328;2023-06-22T10:05:34;32.35;;;27.10;;
41883;SDS011;27566;50.930;5.328;2023-06-22T10:08:00;32.85;;;28.65;;
41883;SDS011;27566;50.930;5.328;2023-06-22T10:10:27;36.08;;;32.22;;
41883;SDS011;27566;50.930;5.328;2023-06-22T10:12:57;38.03;;;33.95;;
41883;SDS011;27566;50.930;5.328;2023-06-22T10:15:34;42.63;;;36.67;;
41883;SDS011;27566;50.930;5.328;2023-06-22T10:18:00;41.00;;;35.30;;
41883;SDS011;27566;50.930;5.328;2023-06-22T10:20:26;54.03;;;39.47;;
41883;SDS011;27566;50.930;5.328;2023-06-22T10:22:53;59.80;;;39.22;;
41883;SDS011;27566;50.930;5.328;2023-06-22T10:25:19;50.45;;;39.42;;
41883;SDS011;27566;50.930;5.328;2023-06-22T10:27:45;60.42;;;47.05;;
41883;SDS011;27566;50.930;5.328;2023-06-22T10:30:11;52.45;;;40.20;;
41883;SDS011;27566;50.930;5.328;2023-06-22T10:32:38;54.25;;;42.28;;
41883;SDS011;27566;50.930;5.328;2023-06-22T10:35:05;49.88;;;41.55;;
41883;SDS011;27566;50.930;5.328;2023-06-22T10:37:31;67.78;;;48.53;;
41883;SDS011;27566;50.930;5.328;2023-06-22T10:39:57;76.90;;;48.90;;
41883;SDS011;27566;50.930;5.328;2023-06-22T10:42:24;81.00;;;58.30;;
41883;SDS011;27566;50.930;5.328;2023-06-22T10:44:49;102.18;;;61.88;;
41883;SDS011;27566;50.930;5.328;2023-06-22T10:47:15;98.93;;;65.57;;
41883;SDS011;27566;50.930;5.328;2023-06-22T10:49:41;119.63;;;71.07;;
41883;SDS011;27566;50.930;5.328;2023-06-22T10:52:08;86.93;;;61.08;;
41883;SDS011;27566;50.930;5.328;2023-06-22T10:54:35;89.20;;;61.55;;
41883;SDS011;27566;50.930;5.328;2023-06-22T10:57:02;89.25;;;62.28;;
41883;SDS011;27566;50.930;5.328;2023-06-22T10:59:28;79.90;;;58.20;;
41883;SDS011;27566;50.930;5.328;2023-06-22T11:01:57;118.50;;;75.60;;
41883;SDS011;27566;50.930;5.328;2023-06-22T11:04:24;70.60;;;51.83;;
41883;SDS011;27566;50.930;5.328;2023-06-22T11:06:50;59.95;;;49.65;;
41883;SDS011;27566;50.930;5.328;2023-06-22T11:09:16;64.18;;;49.13;;
41883;SDS011;27566;50.930;5.328;2023-06-22T11:11:50;62.45;;;48.72;;
41883;SDS011;27566;50.930;5.328;2023-06-22T11:14:19;61.90;;;47.75;;
41883;SDS011;27566;50.930;5.328;2023-06-22T11:16:46;92.78;;;63.92;;
41883;SDS011;27566;50.930;5.328;2023-06-22T11:19:12;162.10;;;94.40;;
41883;SDS011;27566;50.930;5.328;2023-06-22T11:21:38;76.90;;;57.85;;
41883;SDS011;27566;50.930;5.328;2023-06-22T11:24:04;75.07;;;60.55;;
41883;SDS011;27566;50.930;5.328;2023-06-22T11:26:30;75.85;;;60.55;;
41883;SDS011;27566;50.930;5.328;2023-06-22T11:28:57;88.75;;;66.00;;
41883;SDS011;27566;50.930;5.328;2023-06-22T11:31:23;103.45;;;74.38;;
41883;SDS011;27566;50.930;5.328;2023-06-22T11:33:49;72.45;;;59.35;;
41883;SDS011;27566;50.930;5.328;2023-06-22T11:36:16;59.45;;;48.67;;
41883;SDS011;27566;50.930;5.328;2023-06-22T11:38:42;65.70;;;56.58;;
41883;SDS011;27566;50.930;5.328;2023-06-22T11:41:09;71.57;;;57.22;;
41883;SDS011;27566;50.930;5.328;2023-06-22T11:43:35;69.28;;;57.47;;
41883;SDS011;27566;50.930;5.328;2023-06-22T11:46:05;58.78;;;47.65;;
41883;SDS011;27566;50.930;5.328;2023-06-22T11:48:31;51.47;;;42.55;;
41883;SDS011;27566;50.930;5.328;2023-06-22T11:50:57;45.05;;;40.25;;
41883;SDS011;27566;50.930;5.328;2023-06-22T11:53:26;49.78;;;42.35;;
41883;SDS011;27566;50.930;5.328;2023-06-22T11:55:52;49.78;;;42.63;;
41883;SDS011;27566;50.930;5.328;2023-06-22T11:58:20;59.85;;;47.22;;
41883;SDS011;27566;50.930;5.328;2023-06-22T12:00:47;50.88;;;43.65;;
41883;SDS011;27566;50.930;5.328;2023-06-22T12:03:13;50.97;;;41.72;;
41883;SDS011;27566;50.930;5.328;2023-06-22T12:05:39;54.33;;;47.03;;
41883;SDS011;27566;50.930;5.328;2023-06-22T12:08:06;57.08;;;46.80;;
41883;SDS011;27566;50.930;5.328;2023-06-22T12:10:32;72.65;;;55.95;;
41883;SDS011;27566;50.930;5.328;2023-06-22T12:12:57;79.25;;;57.28;;
41883;SDS011;27566;50.930;5.328;2023-06-22T12:15:25;72.18;;;50.08;;
41883;SDS011;27566;50.930;5.328;2023-06-22T12:17:51;81.97;;;60.53;;
41883;SDS011;27566;50.930;5.328;2023-06-22T12:20:17;79.97;;;57.83;;
41883;SDS011;27566;50.930;5.328;2023-06-22T12:22:43;85.38;;;58.08;;
41883;SDS011;27566;50.930;5.328;2023-06-22T12:25:09;86.15;;;61.47;;
41883;SDS011;27566;50.930;5.328;2023-06-22T12:27:35;84.72;;;62.10;;
41883;SDS011;27566;50.930;5.328;2023-06-22T12:30:02;81.63;;;59.78;;
41883;SDS011;27566;50.930;5.328;2023-06-22T12:32:29;89.90;;;64.07;;
41883;SDS011;27566;50.930;5.328;2023-06-22T12:34:55;83.05;;;59.38;;
41883;SDS011;27566;50.930;5.328;2023-06-22T12:37:22;89.45;;;65.18;;
41883;SDS011;27566;50.930;5.328;2023-06-22T12:39:48;77.43;;;58.42;;
41883;SDS011;27566;50.930;5.328;2023-06-22T12:42:15;91.07;;;66.00;;
41883;SDS011;27566;50.930;5.328;2023-06-22T12:44:41;83.25;;;64.32;;
41883;SDS011;27566;50.930;5.328;2023-06-22T12:47:08;102.35;;;68.50;;
41883;SDS011;27566;50.930;5.328;2023-06-22T12:49:34;80.63;;;58.20;;
41883;SDS011;27566;50.930;5.328;2023-06-22T12:52:01;80.18;;;58.97;;
41883;SDS011;27566;50.930;5.328;2023-06-22T12:54:27;83.53;;;59.28;;
41883;SDS011;27566;50.930;5.328;2023-06-22T12:56:54;96.28;;;65.88;;
41883;SDS011;27566;50.930;5.328;2023-06-22T12:59:20;98.93;;;68.57;;
41883;SDS011;27566;50.930;5.328;2023-06-22T13:01:47;77.60;;;57.10;;
41883;SDS011;27566;50.930;5.328;2023-06-22T13:04:13;93.05;;;64.25;;
41883;SDS011;27566;50.930;5.328;2023-06-22T13:06:43;89.88;;;63.97;;
41883;SDS011;27566;50.930;5.328;2023-06-22T13:09:12;89.75;;;66.97;;
41883;SDS011;27566;50.930;5.328;2023-06-22T13:11:40;87.72;;;61.83;;
41883;SDS011;27566;50.930;5.328;2023-06-22T13:14:06;96.45;;;62.90;;
41883;SDS011;27566;50.930;5.328;2023-06-22T13:16:32;118.55;;;71.55;;
41883;SDS011;27566;50.930;5.328;2023-06-22T13:18:58;98.28;;;63.03;;
41883;SDS011;27566;50.930;5.328;2023-06-22T13:21:24;96.15;;;63.65;;
41883;SDS011;27566;50.930;5.328;2023-06-22T13:23:50;82.72;;;55.83;;
41883;SDS011;27566;50.930;5.328;2023-06-22T13:26:16;98.22;;;62.00;;
41883;SDS011;27566;50.930;5.328;2023-06-22T13:28:41;94.18;;;58.63;;
41883;SDS011;27566;50.930;5.328;2023-06-22T13:31:07;128.75;;;63.95;;
41883;SDS011;27566;50.930;5.328;2023-06-22T13:33:33;84.05;;;54.10;;
41883;SDS011;27566;50.930;5.328;2023-06-22T13:35:59;93.43;;;54.40;;
41883;SDS011;27566;50.930;5.328;2023-06-22T13:38:25;102.35;;;57.47;;
41883;SDS011;27566;50.930;5.328;2023-06-22T13:40:52;84.47;;;48.28;;
41883;SDS011;27566;50.930;5.328;2023-06-22T13:43:20;72.38;;;45.90;;
41883;SDS011;27566;50.930;5.328;2023-06-22T13:45:46;74.03;;;46.85;;
41883;SDS011;27566;50.930;5.328;2023-06-22T13:48:12;76.15;;;47.13;;
41883;SDS011;27566;50.930;5.328;2023-06-22T13:50:37;82.82;;;49.28;;
41883;SDS011;27566;50.930;5.328;2023-06-22T13:53:03;95.82;;;53.45;;
41883;SDS011;27566;50.930;5.328;2023-06-22T13:55:29;95.90;;;52.90;;
41883;SDS011;27566;50.930;5.328;2023-06-22T13:57:55;91.55;;;53.47;;
41883;SDS011;27566;50.930;5.328;2023-06-22T14:00:21;103.57;;;56.60;;
41883;SDS011;27566;50.930;5.328;2023-06-22T14:02:48;113.95;;;62.40;;
41883;SDS011;27566;50.930;5.328;2023-06-22T14:05:14;93.05;;;52.42;;
41883;SDS011;27566;50.930;5.328;2023-06-22T14:07:40;125.70;;;62.53;;
41883;SDS011;27566;50.930;5.328;2023-06-22T14:10:06;94.00;;;57.80;;
41883;SDS011;27566;50.930;5.328;2023-06-22T14:12:32;98.95;;;58.30;;
41883;SDS011;27566;50.930;5.328;2023-06-22T14:14:58;99.20;;;56.53;;
41883;SDS011;27566;50.930;5.328;2023-06-22T14:17:24;110.03;;;63.78;;
41883;SDS011;27566;50.930;5.328;2023-06-22T14:19:51;102.97;;;60.03;;
41883;SDS011;27566;50.930;5.328;2023-06-22T14:22:19;105.28;;;61.03;;